createdAt,value
2018-01-18T10:27:06.651Z,979.04
2018-01-18T10:30:05.621Z,979.08
2018-01-18T10:31:05.515Z,979.08
2018-01-18T10:32:58.533Z,979.04
2018-01-18T10:33:58.480Z,979.06
2018-01-18T10:36:28.303Z,979.05
2018-01-18T10:59:28.022Z,979.23
2018-01-18T11:00:28.187Z,979.50
2018-01-18T11:02:20.905Z,980.12
2018-01-18T11:03:20.850Z,979.16
2018-01-18T11:05:13.870Z,979.59
2018-01-18T11:06:13.775Z,979.62
2018-01-18T11:08:06.810Z,979.75
2018-01-18T11:09:06.735Z,979.73
2018-01-18T11:11:15.063Z,979.64
2018-01-18T11:12:15.316Z,980.20
2018-01-18T11:14:07.973Z,980.33
2018-01-18T11:15:07.898Z,980.10
2018-01-18T11:17:01.895Z,980.51
2018-01-18T11:18:01.994Z,980.98
2018-01-18T11:19:54.829Z,980.71
2018-01-18T11:20:54.737Z,980.88
2018-01-18T11:22:47.792Z,980.67
2018-01-18T11:23:47.682Z,980.69
2018-01-18T11:25:41.595Z,980.95
2018-01-18T11:26:41.455Z,981.02
2018-01-18T11:28:35.494Z,981.04
2018-01-18T11:29:35.370Z,981.33
2018-01-18T11:31:28.474Z,981.04
2018-01-18T11:32:28.349Z,981.47
2018-01-18T11:34:21.319Z,981.65
2018-01-18T11:35:21.203Z,981.64
2018-01-18T11:36:21.121Z,981.80
2018-01-18T11:37:21.093Z,981.59
2018-01-18T11:38:21.625Z,982.04
2018-01-18T11:39:20.940Z,981.99
2018-01-18T11:40:20.891Z,981.30
2018-01-18T11:41:20.847Z,982.50
2018-01-18T11:42:20.763Z,982.87
2018-01-18T11:44:14.327Z,982.48
2018-01-18T11:45:14.705Z,982.55
2018-01-18T11:47:07.563Z,982.96
2018-01-18T11:48:07.482Z,982.76
2018-01-18T11:50:00.536Z,983.04
2018-01-18T11:51:00.456Z,982.90
2018-01-18T11:52:53.451Z,983.40
2018-01-18T11:53:53.392Z,983.36
2018-01-18T11:55:46.368Z,983.27
2018-01-18T11:56:46.306Z,983.70
2018-01-18T11:58:39.405Z,983.74
2018-01-18T11:59:39.294Z,983.99
2018-01-18T12:01:32.324Z,983.68
2018-01-18T12:02:32.221Z,984.36
2018-01-18T12:04:25.264Z,984.15
2018-01-18T12:05:25.169Z,984.35
2018-01-18T12:07:18.194Z,984.68
2018-01-18T12:08:18.112Z,984.79
2018-01-18T12:10:11.111Z,984.73
2018-01-18T12:11:11.034Z,984.79
2018-01-18T12:13:04.079Z,985.17
2018-01-18T12:14:03.965Z,984.96
2018-01-18T12:15:56.969Z,985.36
2018-01-18T12:16:56.910Z,985.19
2018-01-18T12:18:49.955Z,985.44
2018-01-18T12:19:49.857Z,985.60
2018-01-18T12:21:42.899Z,985.64
2018-01-18T12:22:42.937Z,985.54
2018-01-18T12:24:35.975Z,985.96
2018-01-18T12:25:35.805Z,985.96
2018-01-18T12:27:28.787Z,986.06
2018-01-18T12:28:28.717Z,985.99
2018-01-18T12:30:25.139Z,986.29
2018-01-18T12:31:21.818Z,986.20
2018-01-18T12:32:21.633Z,986.18
2018-01-18T12:33:21.592Z,986.62
2018-01-18T12:34:21.556Z,986.48
2018-01-18T12:35:22.228Z,986.57
2018-01-18T12:36:21.614Z,986.71
2018-01-18T12:37:21.477Z,986.60
2018-01-18T12:38:21.280Z,986.76
2018-01-18T12:39:21.245Z,986.89
2018-01-18T12:40:21.172Z,986.86
2018-01-18T12:41:21.110Z,986.92
2018-01-18T12:42:21.049Z,986.94
2018-01-18T12:43:21.057Z,986.94
2018-01-18T12:44:20.918Z,987.21
2018-01-18T12:45:20.944Z,987.24
2018-01-18T12:46:20.804Z,987.07
2018-01-18T12:47:20.770Z,987.21
2018-01-18T12:48:20.721Z,987.39
2018-01-18T12:49:20.716Z,987.43
2018-01-18T12:50:20.580Z,987.45
2018-01-18T12:51:20.482Z,987.67
2018-01-18T12:52:20.436Z,987.65
2018-01-18T12:53:20.396Z,987.83
2018-01-18T12:54:20.317Z,987.70
2018-01-18T12:55:20.317Z,987.66
2018-01-18T12:56:20.210Z,987.74
2018-01-18T12:57:20.159Z,987.87
2018-01-18T12:58:20.090Z,987.79
2018-01-18T12:59:21.007Z,987.94
2018-01-18T13:00:22.474Z,987.92
2018-01-18T13:01:20.604Z,988.11
2018-01-18T13:02:19.847Z,988.16
2018-01-18T13:03:19.799Z,988.23
2018-01-18T13:04:19.709Z,988.22
2018-01-18T13:06:12.758Z,988.41
2018-01-18T13:07:12.657Z,988.43
2018-01-18T13:09:05.719Z,988.44
2018-01-18T13:10:05.645Z,988.82
2018-01-18T13:11:58.679Z,988.59
2018-01-18T13:12:58.569Z,988.59
2018-01-18T13:14:51.677Z,988.68
2018-01-18T13:15:51.570Z,988.87
2018-01-18T13:17:44.626Z,989.01
2018-01-18T13:18:44.487Z,988.86
2018-01-18T13:20:37.645Z,989.00
2018-01-18T13:21:37.474Z,989.00
2018-01-18T13:23:30.475Z,989.21
2018-01-18T13:24:30.456Z,989.23
2018-01-18T13:26:23.459Z,989.39
2018-01-18T13:27:23.397Z,989.23
2018-01-18T13:29:16.380Z,989.51
2018-01-18T13:30:16.314Z,989.63
2018-01-18T13:32:09.448Z,989.41
2018-01-18T13:33:09.333Z,989.56
2018-01-18T13:35:16.892Z,989.74
2018-01-18T13:36:16.757Z,989.76
2018-01-18T13:38:09.807Z,989.82
2018-01-18T13:39:09.707Z,989.93
2018-01-18T13:41:02.872Z,989.94
2018-01-18T13:42:02.719Z,989.97
2018-01-18T13:43:55.774Z,990.07
2018-01-18T13:44:55.685Z,990.17
2018-01-18T13:46:48.705Z,990.25
2018-01-18T13:47:48.628Z,990.18
2018-01-18T13:49:42.831Z,990.37
2018-01-18T13:50:42.739Z,990.47
2018-01-18T13:52:36.099Z,990.35
2018-01-18T13:53:35.652Z,990.52
2018-01-18T13:55:28.688Z,990.55
2018-01-18T13:56:28.596Z,990.65
2018-01-18T13:58:21.608Z,990.65
2018-01-18T13:59:21.534Z,990.75
2018-01-18T14:01:14.559Z,990.81
2018-01-18T14:02:14.449Z,990.86
2018-01-18T14:04:07.494Z,990.93
2018-01-18T14:05:07.390Z,991.10
2018-01-18T14:07:00.378Z,991.01
2018-01-18T14:08:00.300Z,991.08
2018-01-18T14:09:53.328Z,991.02
2018-01-18T14:10:53.228Z,991.07
2018-01-18T14:12:46.251Z,991.09
2018-01-18T14:13:46.207Z,991.15
2018-01-18T14:15:39.228Z,991.15
2018-01-18T14:16:39.080Z,991.24
2018-01-18T14:18:32.108Z,991.27
2018-01-18T14:19:32.036Z,991.28
2018-01-18T14:21:25.123Z,991.29
2018-01-18T14:22:24.974Z,991.33
2018-01-18T14:24:18.123Z,991.37
2018-01-18T14:25:17.930Z,991.52
2018-01-18T14:27:10.992Z,991.48
2018-01-18T14:28:10.893Z,991.48
2018-01-18T14:30:04.029Z,991.57
2018-01-18T14:31:03.853Z,991.57
2018-01-18T14:32:03.755Z,991.59
2018-01-18T14:33:03.689Z,991.58
2018-01-18T14:34:03.602Z,991.75
2018-01-18T14:35:03.545Z,991.73
2018-01-18T14:36:03.512Z,991.63
2018-01-18T14:37:04.594Z,991.77
2018-01-18T14:38:56.610Z,991.83
2018-01-18T14:39:56.509Z,991.91
2018-01-18T14:41:49.908Z,991.99
2018-01-18T14:42:49.428Z,992.04
2018-01-18T14:44:54.107Z,992.13
2018-01-18T14:45:54.013Z,992.12
2018-01-18T14:47:47.026Z,991.98
2018-01-18T14:48:46.956Z,992.15
2018-01-18T14:50:39.966Z,992.18
2018-01-18T14:51:39.861Z,992.20
2018-01-18T14:53:32.877Z,992.15
2018-01-18T14:54:32.809Z,992.18
2018-01-18T14:56:25.829Z,992.17
2018-01-18T14:57:25.832Z,992.19
2018-01-18T14:59:18.739Z,992.25
2018-01-18T15:00:18.662Z,992.20
2018-01-18T15:02:13.954Z,992.30
2018-01-18T15:03:11.606Z,992.28
2018-01-18T15:05:04.866Z,992.32
2018-01-18T15:06:04.578Z,992.37
2018-01-18T15:07:59.438Z,992.43
2018-01-18T15:08:57.549Z,992.46
2018-01-18T15:10:50.718Z,992.54
2018-01-18T15:11:50.413Z,992.53
2018-01-18T15:13:43.575Z,992.66
2018-01-18T15:14:43.462Z,992.71
2018-01-18T15:16:36.690Z,992.73
2018-01-18T15:17:36.442Z,992.72
2018-01-18T15:19:29.359Z,992.76
2018-01-18T15:20:29.284Z,992.73
2018-01-18T15:22:22.340Z,992.79
2018-01-18T15:23:22.235Z,992.78
2018-01-18T15:25:15.435Z,992.82
2018-01-18T15:26:15.203Z,992.87
2018-01-18T15:28:08.229Z,992.85
2018-01-18T15:29:08.161Z,992.92
2018-01-18T15:31:01.301Z,992.93
2018-01-18T15:32:01.204Z,992.89
2018-01-18T15:33:54.253Z,992.90
2018-01-18T15:34:54.179Z,992.91
2018-01-18T15:36:47.234Z,992.92
2018-01-18T15:37:47.192Z,992.93
2018-01-18T15:39:40.159Z,993.04
2018-01-18T15:40:40.088Z,993.04
2018-01-18T15:42:33.140Z,993.05
2018-01-18T15:43:33.039Z,993.03
2018-01-18T15:45:26.079Z,993.03
2018-01-18T15:46:25.983Z,993.12
2018-01-18T15:48:19.007Z,993.08
2018-01-18T15:49:19.007Z,993.14
2018-01-18T15:51:12.040Z,993.15
2018-01-18T15:52:12.009Z,993.16
2018-01-18T15:54:04.956Z,993.21
2018-01-18T15:55:05.024Z,993.21
2018-01-18T15:56:57.904Z,993.29
2018-01-18T15:57:57.806Z,993.30
2018-01-18T15:59:50.834Z,993.35
2018-01-18T16:00:50.759Z,993.33
2018-01-18T16:02:43.882Z,993.42
2018-01-18T16:03:43.701Z,993.41
2018-01-18T16:05:36.720Z,993.40
2018-01-18T16:06:36.757Z,993.46
2018-01-18T16:08:30.476Z,993.43
2018-01-18T16:09:30.395Z,993.48
2018-01-18T16:11:23.419Z,993.54
2018-01-18T16:12:23.318Z,993.55
2018-01-18T16:14:16.335Z,993.56
2018-01-18T16:15:16.252Z,993.57
2018-01-18T16:17:09.249Z,993.67
2018-01-18T16:18:09.158Z,993.59
2018-01-18T16:20:02.146Z,993.64
2018-01-18T16:21:02.195Z,993.69
2018-01-18T16:22:55.113Z,993.69
2018-01-18T16:23:55.017Z,993.71
2018-01-18T16:25:48.076Z,993.73
2018-01-18T16:26:48.004Z,993.75
2018-01-18T16:28:41.018Z,993.81
2018-01-18T16:29:40.927Z,993.86
2018-01-18T16:31:33.909Z,993.87
2018-01-18T16:32:33.836Z,993.86
2018-01-18T16:34:26.904Z,993.86
2018-01-18T16:35:26.817Z,993.95
2018-01-18T16:37:19.878Z,993.83
2018-01-18T16:38:19.771Z,993.85
2018-01-18T16:40:12.788Z,993.91
2018-01-18T16:41:12.723Z,993.93
2018-01-18T16:43:05.747Z,993.96
2018-01-18T16:44:05.653Z,993.98
2018-01-18T16:45:58.679Z,993.94
2018-01-18T16:46:58.607Z,993.93
2018-01-18T16:48:51.626Z,993.98
2018-01-18T16:49:51.529Z,994.07
2018-01-18T16:51:44.541Z,994.03
2018-01-18T16:52:44.462Z,994.04
2018-01-18T16:53:44.389Z,994.06
2018-01-18T16:54:44.342Z,994.09
2018-01-18T16:55:44.265Z,994.02
2018-01-18T16:56:44.279Z,994.09
2018-01-18T16:57:44.149Z,994.12
2018-01-18T16:58:44.085Z,994.12
2018-01-18T16:59:44.024Z,994.13
2018-01-18T17:00:43.965Z,994.10
2018-01-18T17:01:43.900Z,994.20
2018-01-18T17:02:43.844Z,994.22
2018-01-18T17:03:43.786Z,994.17
2018-01-18T17:04:43.720Z,994.28
2018-01-18T17:05:43.656Z,994.18
2018-01-18T17:06:43.659Z,994.27
2018-01-18T17:07:43.535Z,994.25
2018-01-18T17:08:43.475Z,994.33
2018-01-18T17:09:43.417Z,994.35
2018-01-18T17:10:43.360Z,994.39
2018-01-18T17:11:43.312Z,994.32
2018-01-18T17:12:43.231Z,994.33
2018-01-18T17:13:43.174Z,994.30
2018-01-18T17:14:43.111Z,994.39
2018-01-18T17:15:43.061Z,994.36
2018-01-18T17:16:42.994Z,994.37
2018-01-18T17:17:42.989Z,994.41
2018-01-18T17:18:42.986Z,994.40
2018-01-18T17:19:42.888Z,994.44
2018-01-18T17:20:42.841Z,994.45
2018-01-18T17:21:42.794Z,994.38
2018-01-18T17:22:42.683Z,994.50
2018-01-18T17:23:42.567Z,994.40
2018-01-18T17:24:42.507Z,994.46
2018-01-18T17:25:42.444Z,994.54
2018-01-18T17:26:42.423Z,994.42
2018-01-18T17:28:35.423Z,994.46
2018-01-18T17:29:35.331Z,994.43
2018-01-18T17:31:42.631Z,994.55
2018-01-18T17:32:42.624Z,994.51
2018-01-18T17:34:35.611Z,994.57
2018-01-18T17:35:35.623Z,994.55
2018-01-18T17:37:28.584Z,994.60
2018-01-18T17:38:28.424Z,994.64
2018-01-18T17:40:21.461Z,994.68
2018-01-18T17:41:21.380Z,994.62
2018-01-18T17:43:14.450Z,994.73
2018-01-18T17:44:14.355Z,994.67
2018-01-18T17:46:07.450Z,994.77
2018-01-18T17:47:07.409Z,994.76
2018-01-18T17:49:00.428Z,994.77
2018-01-18T17:50:00.268Z,994.78
2018-01-18T17:51:55.144Z,994.83
2018-01-18T17:52:53.317Z,994.83
2018-01-18T17:54:46.455Z,994.82
2018-01-18T17:55:46.188Z,994.84
2018-01-18T17:57:39.240Z,994.87
2018-01-18T17:58:39.127Z,994.83
2018-01-18T18:00:34.019Z,994.85
2018-01-18T18:01:32.091Z,994.91
2018-01-18T18:03:25.313Z,994.86
2018-01-18T18:04:25.103Z,994.95
2018-01-18T18:06:18.268Z,994.95
2018-01-18T18:07:18.188Z,994.92
2018-01-18T18:09:11.517Z,994.88
2018-01-18T18:10:11.071Z,994.89
2018-01-18T18:12:04.059Z,994.87
2018-01-18T18:13:04.004Z,994.85
2018-01-18T18:14:57.055Z,994.95
2018-01-18T18:15:56.993Z,994.96
2018-01-18T18:17:50.027Z,994.93
2018-01-18T18:18:49.933Z,994.97
2018-01-18T18:20:44.820Z,994.96
2018-01-18T18:21:42.857Z,994.98
2018-01-18T18:23:35.920Z,994.99
2018-01-18T18:24:35.820Z,995.02
2018-01-18T18:26:29.475Z,995.05
2018-01-18T18:27:29.010Z,995.06
2018-01-18T18:29:24.287Z,995.13
2018-01-18T18:30:21.997Z,995.12
2018-01-18T18:32:15.750Z,995.13
2018-01-18T18:33:15.798Z,995.12
2018-01-18T18:35:12.085Z,995.14
2018-01-18T18:36:10.626Z,995.14
2018-01-18T18:38:17.037Z,995.19
2018-01-18T18:39:16.165Z,995.17
2018-01-18T18:41:09.174Z,995.21
2018-01-18T18:42:09.111Z,995.21
2018-01-18T18:44:02.163Z,995.25
2018-01-18T18:45:02.058Z,995.17
2018-01-18T18:46:55.928Z,995.26
2018-01-18T18:47:55.855Z,995.25
2018-01-18T18:49:48.886Z,995.34
2018-01-18T18:50:48.790Z,995.35
2018-01-18T18:52:41.802Z,995.33
2018-01-18T18:53:41.737Z,995.34
2018-01-18T18:55:34.806Z,995.35
2018-01-18T18:56:34.706Z,995.32
2018-01-18T18:58:27.705Z,995.32
2018-01-18T18:59:27.633Z,995.35
2018-01-18T19:01:20.694Z,995.35
2018-01-18T19:02:20.589Z,995.30
2018-01-18T19:04:13.611Z,995.34
2018-01-18T19:05:13.543Z,995.32
2018-01-18T19:07:06.596Z,995.30
2018-01-18T19:08:06.498Z,995.37
2018-01-18T19:09:59.515Z,995.34
2018-01-18T19:10:59.456Z,995.39
2018-01-18T19:12:52.622Z,995.37
2018-01-18T19:13:52.414Z,995.38
2018-01-18T19:15:45.437Z,995.35
2018-01-18T19:16:45.480Z,995.35
2018-01-18T19:18:38.398Z,995.37
2018-01-18T19:19:38.296Z,995.41
2018-01-18T19:21:31.298Z,995.43
2018-01-18T19:22:31.238Z,995.41
2018-01-18T19:24:24.246Z,995.40
2018-01-18T19:25:24.150Z,995.40
2018-01-18T19:27:17.136Z,995.43
2018-01-18T19:28:17.066Z,995.42
2018-01-18T19:30:10.134Z,995.43
2018-01-18T19:31:10.041Z,995.37
2018-01-18T19:33:03.041Z,995.46
2018-01-18T19:34:02.972Z,995.49
2018-01-18T19:35:55.981Z,995.46
2018-01-18T19:36:55.886Z,995.51
2018-01-18T19:38:48.916Z,995.55
2018-01-18T19:39:48.820Z,995.52
2018-01-18T19:41:41.822Z,995.57
2018-01-18T19:42:42.619Z,995.57
2018-01-18T19:44:35.196Z,995.56
2018-01-18T19:45:34.666Z,995.55
2018-01-18T19:46:34.603Z,995.54
2018-01-18T19:47:34.544Z,995.52
2018-01-18T19:48:34.495Z,995.54
2018-01-18T19:49:34.416Z,995.54
2018-01-18T19:50:34.358Z,995.54
2018-01-18T19:51:34.296Z,995.54
2018-01-18T19:52:34.234Z,995.56
2018-01-18T19:53:34.177Z,995.56
2018-01-18T19:54:34.113Z,995.58
2018-01-18T19:55:34.048Z,995.62
2018-01-18T19:56:34.032Z,995.59
2018-01-18T19:57:33.933Z,995.63
2018-01-18T19:58:33.867Z,995.61
2018-01-18T19:59:33.811Z,995.64
2018-01-18T20:00:33.746Z,995.62
2018-01-18T20:01:33.682Z,995.64
2018-01-18T20:02:33.633Z,995.63
2018-01-18T20:03:33.565Z,995.63
2018-01-18T20:04:33.500Z,995.66
2018-01-18T20:05:33.440Z,995.72
2018-01-18T20:06:33.377Z,995.74
2018-01-18T20:07:33.316Z,995.72
2018-01-18T20:08:33.251Z,995.72
2018-01-18T20:09:33.190Z,995.75
2018-01-18T20:10:33.140Z,995.74
2018-01-18T20:11:33.070Z,995.78
2018-01-18T20:12:33.005Z,995.77
2018-01-18T20:13:32.946Z,995.79
2018-01-18T20:14:32.887Z,995.78
2018-01-18T20:15:32.830Z,995.75
2018-01-18T20:16:32.758Z,995.78
2018-01-18T20:17:32.706Z,995.79
2018-01-18T20:18:32.637Z,995.81
2018-01-18T20:19:32.581Z,995.75
2018-01-18T20:20:32.515Z,995.78
2018-01-18T20:21:32.451Z,995.77
2018-01-18T20:22:32.399Z,995.72
2018-01-18T20:23:32.335Z,995.74
2018-01-18T20:24:32.268Z,995.77
2018-01-18T20:25:32.211Z,995.79
2018-01-18T20:26:32.151Z,995.78
2018-01-18T20:27:32.086Z,995.83
2018-01-18T20:28:32.028Z,995.80
2018-01-18T20:29:31.962Z,995.82
2018-01-18T20:30:31.909Z,995.84
2018-01-18T20:31:31.895Z,995.83
2018-01-18T20:32:31.777Z,995.86
2018-01-18T20:33:31.716Z,995.86
2018-01-18T20:34:31.654Z,995.87
2018-01-18T20:35:31.591Z,995.90
2018-01-18T20:36:31.532Z,995.91
2018-01-18T20:37:31.473Z,995.91
2018-01-18T20:38:31.406Z,995.94
2018-01-18T20:39:31.349Z,995.95
2018-01-18T20:40:31.288Z,995.96
2018-01-18T20:41:31.220Z,995.93
2018-01-18T20:42:31.170Z,995.94
2018-01-18T20:43:31.107Z,995.98
2018-01-18T20:44:31.041Z,995.98
2018-01-18T20:45:30.977Z,996.01
2018-01-18T20:46:30.919Z,995.96
2018-01-18T20:47:30.857Z,995.95
2018-01-18T20:48:30.794Z,995.99
2018-01-18T20:49:30.803Z,995.99
2018-01-18T20:50:30.680Z,995.97
2018-01-18T20:51:30.609Z,996.01
2018-01-18T20:52:30.568Z,995.95
2018-01-18T20:53:30.499Z,995.96
2018-01-18T20:54:30.423Z,995.96
2018-01-18T20:55:30.365Z,995.98
2018-01-18T20:56:30.301Z,995.98
2018-01-18T20:57:30.244Z,996.02
2018-01-18T20:58:30.176Z,996.00
2018-01-18T20:59:30.115Z,996.02
2018-01-18T21:00:30.055Z,996.04
2018-01-18T21:01:30.006Z,996.02
2018-01-18T21:02:29.931Z,996.05
2018-01-18T21:03:29.870Z,996.07
2018-01-18T21:04:29.808Z,996.04
2018-01-18T21:05:29.748Z,996.02
2018-01-18T21:06:29.684Z,996.02
2018-01-18T21:07:29.624Z,996.00
2018-01-18T21:08:29.565Z,995.98
2018-01-18T21:09:29.507Z,995.99
2018-01-18T21:10:29.468Z,995.98
2018-01-18T21:11:29.377Z,995.99
2018-01-18T21:12:29.313Z,996.00
2018-01-18T21:13:29.258Z,996.02
2018-01-18T21:14:29.197Z,996.02
2018-01-18T21:15:29.131Z,996.06
2018-01-18T21:16:29.068Z,996.07
2018-01-18T21:17:29.058Z,996.09
2018-01-18T21:18:28.947Z,996.11
2018-01-18T21:19:28.888Z,996.14
2018-01-18T21:20:28.833Z,996.16
2018-01-18T21:21:28.761Z,996.13
2018-01-18T21:22:28.702Z,996.18
2018-01-18T21:23:28.769Z,996.19
2018-01-18T21:24:28.579Z,996.22
2018-01-18T21:25:28.530Z,996.18
2018-01-18T21:26:28.452Z,996.19
2018-01-18T21:27:28.394Z,996.22
2018-01-18T21:28:28.328Z,996.20
2018-01-18T21:29:28.269Z,996.25
2018-01-18T21:30:28.208Z,996.20
2018-01-18T21:31:28.147Z,996.22
2018-01-18T21:32:28.081Z,996.23
2018-01-18T21:33:28.024Z,996.22
2018-01-18T21:34:27.979Z,996.18
2018-01-18T21:35:27.901Z,996.17
2018-01-18T21:36:27.839Z,996.16
2018-01-18T21:37:27.806Z,996.17
2018-01-18T21:38:27.756Z,996.14
2018-01-18T21:39:27.655Z,996.16
2018-01-18T21:40:27.592Z,996.18
2018-01-18T21:41:27.528Z,996.13
2018-01-18T21:42:27.471Z,996.19
2018-01-18T21:43:27.406Z,996.21
2018-01-18T21:44:27.344Z,996.20
2018-01-18T21:45:27.281Z,996.24
2018-01-18T21:46:27.224Z,996.26
2018-01-18T21:47:27.159Z,996.23
2018-01-18T21:48:27.095Z,996.22
2018-01-18T21:49:27.050Z,996.22
2018-01-18T21:50:26.971Z,996.26
2018-01-18T21:51:26.915Z,996.28
2018-01-18T21:52:26.854Z,996.23
2018-01-18T21:53:26.797Z,996.22
2018-01-18T21:54:26.733Z,996.23
2018-01-18T21:55:26.663Z,996.20
2018-01-18T21:56:26.607Z,996.22
2018-01-18T21:57:26.543Z,996.22
2018-01-18T21:58:26.500Z,996.18
2018-01-18T21:59:26.420Z,996.21
2018-01-18T22:00:26.356Z,996.20
2018-01-18T22:01:26.292Z,996.20
2018-01-18T22:02:26.233Z,996.25
2018-01-18T22:03:26.173Z,996.24
2018-01-18T22:04:26.120Z,996.25
2018-01-18T22:05:26.053Z,996.28
2018-01-18T22:06:25.988Z,996.27
2018-01-18T22:07:25.930Z,996.29
2018-01-18T22:08:25.862Z,996.31
2018-01-18T22:09:25.799Z,996.29
2018-01-18T22:10:25.739Z,996.35
2018-01-18T22:11:25.680Z,996.30
2018-01-18T22:12:25.622Z,996.31
2018-01-18T22:13:25.569Z,996.32
2018-01-18T22:14:25.596Z,996.33
2018-01-18T22:15:25.432Z,996.32
2018-01-18T22:16:25.413Z,996.35
2018-01-18T22:17:26.460Z,996.33
2018-01-18T22:18:25.249Z,996.32
2018-01-18T22:19:25.260Z,996.35
2018-01-18T22:20:25.122Z,996.37
2018-01-18T22:21:25.068Z,996.37
2018-01-18T22:22:25.046Z,996.39
2018-01-18T22:23:24.945Z,996.40
2018-01-18T22:24:24.881Z,996.40
2018-01-18T22:25:24.810Z,996.37
2018-01-18T22:26:24.753Z,996.38
2018-01-18T22:27:24.897Z,996.38
2018-01-18T22:28:24.635Z,996.39
2018-01-18T22:29:24.587Z,996.38
2018-01-18T22:30:24.557Z,996.34
2018-01-18T22:32:17.561Z,996.36
2018-01-18T22:33:17.459Z,996.32
2018-01-18T22:35:10.481Z,996.34
2018-01-18T22:36:10.408Z,996.32
2018-01-18T22:38:03.466Z,996.28
2018-01-18T22:39:03.364Z,996.27
2018-01-18T22:40:56.420Z,996.25
2018-01-18T22:41:56.326Z,996.27
2018-01-18T22:43:49.351Z,996.28
2018-01-18T22:44:49.279Z,996.30
2018-01-18T22:46:42.421Z,996.34
2018-01-18T22:47:42.936Z,996.34
2018-01-18T22:49:35.369Z,996.35
2018-01-18T22:50:35.376Z,996.35
2018-01-18T22:52:28.240Z,996.38
2018-01-18T22:53:28.140Z,996.37
2018-01-18T22:55:21.180Z,996.41
2018-01-18T22:56:21.097Z,996.38
2018-01-18T22:58:14.250Z,996.36
2018-01-18T22:59:14.048Z,996.37
2018-01-18T23:01:07.142Z,996.37
2018-01-18T23:02:07.017Z,996.34
2018-01-18T23:04:00.043Z,996.33
2018-01-18T23:04:59.969Z,996.41
2018-01-18T23:06:53.033Z,996.43
2018-01-18T23:07:53.018Z,996.41
2018-01-18T23:09:45.952Z,996.43
2018-01-18T23:10:45.862Z,996.41
2018-01-18T23:12:38.920Z,996.46
2018-01-18T23:13:38.833Z,996.47
2018-01-18T23:15:31.841Z,996.53
2018-01-18T23:16:31.780Z,996.55
2018-01-18T23:18:24.831Z,996.53
2018-01-18T23:19:24.744Z,996.49
2018-01-18T23:21:17.760Z,996.50
2018-01-18T23:22:18.621Z,996.50
2018-01-18T23:24:10.635Z,996.50
2018-01-18T23:25:10.560Z,996.50
2018-01-18T23:27:03.607Z,996.51
2018-01-18T23:28:04.431Z,996.48
2018-01-18T23:29:57.376Z,996.46
2018-01-18T23:30:56.442Z,996.50
2018-01-18T23:32:49.496Z,996.50
2018-01-18T23:33:49.394Z,996.51
2018-01-18T23:35:42.428Z,996.51
2018-01-18T23:36:42.362Z,996.53
2018-01-18T23:38:35.408Z,996.53
2018-01-18T23:39:35.297Z,996.52
2018-01-18T23:41:28.361Z,996.55
2018-01-18T23:42:28.255Z,996.54
2018-01-18T23:44:21.402Z,996.55
2018-01-18T23:45:21.325Z,996.54
2018-01-18T23:47:14.260Z,996.54
2018-01-18T23:48:14.179Z,996.55
2018-01-18T23:50:07.194Z,996.56
2018-01-18T23:51:07.156Z,996.56
2018-01-18T23:53:00.194Z,996.55
2018-01-18T23:54:00.075Z,996.52
2018-01-18T23:55:53.128Z,996.55
2018-01-18T23:56:55.065Z,996.57
2018-01-18T23:58:46.091Z,996.61
2018-01-18T23:59:45.984Z,996.66
